createdAt,value
2018-07-12T00:01:30.623Z,36.97
2018-07-12T00:03:57.700Z,35.13
2018-07-12T00:06:24.753Z,33.10
2018-07-12T00:08:51.799Z,34.27
2018-07-12T00:11:18.840Z,35.30
2018-07-12T00:13:45.905Z,38.07
2018-07-12T00:16:12.956Z,37.37
2018-07-12T00:18:39.981Z,37.70
2018-07-12T00:21:07.176Z,35.50
2018-07-12T00:23:34.214Z,33.50
2018-07-12T00:26:01.321Z,35.70
2018-07-12T00:28:28.366Z,35.70
2018-07-12T00:30:55.422Z,35.90
2018-07-12T00:33:22.468Z,39.10
2018-07-12T00:35:49.526Z,35.33
2018-07-12T00:38:16.599Z,38.20
2018-07-12T00:40:43.647Z,38.70
2018-07-12T00:43:10.699Z,36.63
2018-07-12T00:45:37.756Z,39.13
2018-07-12T00:48:04.813Z,38.40
2018-07-12T00:50:31.936Z,41.57
2018-07-12T00:52:58.969Z,38.83
2018-07-12T00:55:26.013Z,38.47
2018-07-12T00:57:53.064Z,37.57
2018-07-12T01:00:20.136Z,40.43
2018-07-12T01:02:47.177Z,40.90
2018-07-12T01:05:14.240Z,42.10
2018-07-12T01:07:41.261Z,40.07
2018-07-12T01:10:08.306Z,39.67
2018-07-12T01:12:35.390Z,39.87
2018-07-12T01:15:02.442Z,40.00
2018-07-12T01:17:29.489Z,41.57
2018-07-12T01:19:56.585Z,41.90
2018-07-12T01:22:23.692Z,38.50
2018-07-12T01:24:50.729Z,43.27
2018-07-12T01:27:17.764Z,42.37
2018-07-12T01:29:44.801Z,40.07
2018-07-12T01:32:11.843Z,40.27
2018-07-12T01:34:38.888Z,40.43
2018-07-12T01:37:05.933Z,40.97
2018-07-12T01:39:32.970Z,42.73
2018-07-12T01:42:00.690Z,43.63
2018-07-12T01:44:27.718Z,41.63
2018-07-12T01:46:54.870Z,42.90
2018-07-12T01:49:21.927Z,38.03
2018-07-12T01:51:48.969Z,39.00
2018-07-12T01:54:16.010Z,41.30
2018-07-12T01:56:43.113Z,42.10
2018-07-12T01:59:10.175Z,40.73
2018-07-12T02:01:37.260Z,43.80
2018-07-12T02:04:04.316Z,41.47
2018-07-12T02:06:31.418Z,41.90
2018-07-12T02:08:58.453Z,41.50
2018-07-12T02:11:25.563Z,42.30
2018-07-12T02:13:52.721Z,42.33
2018-07-12T02:16:19.804Z,40.47
2018-07-12T02:18:46.865Z,39.13
2018-07-12T02:21:13.964Z,43.63
2018-07-12T02:23:41.012Z,41.47
2018-07-12T02:26:08.071Z,40.17
2018-07-12T02:28:35.108Z,41.60
2018-07-12T02:31:02.153Z,40.80
2018-07-12T02:33:29.201Z,46.30
2018-07-12T02:35:56.244Z,52.90
2018-07-12T02:38:23.332Z,41.23
2018-07-12T02:40:50.188Z,35.57
2018-07-12T02:43:17.227Z,44.20
2018-07-12T02:45:44.281Z,43.93
2018-07-12T02:48:11.325Z,35.93
2018-07-12T02:50:38.365Z,36.30
2018-07-12T02:53:05.473Z,38.43
2018-07-12T02:55:32.493Z,39.47
2018-07-12T02:57:59.532Z,47.80
2018-07-12T03:00:26.653Z,46.97
2018-07-12T03:02:53.740Z,54.20
2018-07-12T03:05:20.781Z,62.13
2018-07-12T03:07:47.833Z,56.47
2018-07-12T03:10:14.884Z,42.27
2018-07-12T03:12:41.944Z,50.20
2018-07-12T03:15:08.988Z,39.80
2018-07-12T03:17:36.027Z,47.47
2018-07-12T03:20:03.080Z,41.90
2018-07-12T03:22:30.151Z,45.57
2018-07-12T03:24:57.198Z,52.20
2018-07-12T03:27:24.273Z,43.63
2018-07-12T03:29:51.326Z,52.93
2018-07-12T03:32:18.391Z,38.70
2018-07-12T03:34:45.434Z,39.90
2018-07-12T03:37:12.486Z,39.43
2018-07-12T03:39:39.516Z,46.20
2018-07-12T03:42:06.573Z,39.07
2018-07-12T03:44:33.608Z,39.03
2018-07-12T03:47:00.676Z,41.40
2018-07-12T03:49:27.940Z,38.80
2018-07-12T03:51:55.012Z,33.47
2018-07-12T03:54:22.045Z,34.73
2018-07-12T03:56:49.104Z,32.50
2018-07-12T03:59:16.369Z,33.10
2018-07-12T04:01:43.451Z,33.50
2018-07-12T04:04:10.489Z,34.17
2018-07-12T04:06:37.584Z,31.93
2018-07-12T04:09:05.605Z,30.10
2018-07-12T04:11:32.716Z,34.20
2018-07-12T04:13:59.760Z,30.20
2018-07-12T04:16:26.809Z,31.27
2018-07-12T04:18:53.853Z,30.53
2018-07-12T04:21:20.899Z,29.93
2018-07-12T04:23:47.924Z,28.50
2018-07-12T04:26:14.971Z,28.87
2018-07-12T04:28:42.240Z,29.30
2018-07-12T04:31:09.293Z,27.42
2018-07-12T04:33:36.340Z,29.00
2018-07-12T04:36:03.420Z,28.50
2018-07-12T04:38:30.440Z,27.77
2018-07-12T04:40:57.472Z,26.00
2018-07-12T04:43:24.616Z,25.57
2018-07-12T04:45:51.684Z,23.20
2018-07-12T04:48:18.736Z,24.30
2018-07-12T04:50:45.776Z,23.40
2018-07-12T04:53:12.868Z,23.17
2018-07-12T04:55:39.950Z,21.80
2018-07-12T04:58:07.036Z,22.27
2018-07-12T05:00:34.041Z,20.73
2018-07-12T05:03:01.089Z,21.80
2018-07-12T05:05:28.117Z,20.90
2018-07-12T05:07:55.164Z,19.70
2018-07-12T05:10:22.225Z,21.27
2018-07-12T05:12:49.280Z,18.20
2018-07-12T05:15:16.454Z,18.63
2018-07-12T05:17:43.510Z,17.70
2018-07-12T05:20:10.565Z,18.63
2018-07-12T05:22:37.605Z,18.43
2018-07-12T05:25:04.654Z,16.07
2018-07-12T05:27:31.696Z,16.40
2018-07-12T05:29:58.728Z,14.67
2018-07-12T05:32:25.778Z,15.17
2018-07-12T05:34:52.828Z,12.90
2018-07-12T05:37:21.624Z,11.77
2018-07-12T05:39:50.144Z,11.60
2018-07-12T05:44:57.616Z,10.80
2018-07-12T05:47:25.621Z,10.73
2018-07-12T05:49:53.702Z,10.37
2018-07-12T05:52:21.732Z,10.43
2018-07-12T05:54:49.745Z,10.70
2018-07-12T05:57:17.925Z,10.00
2018-07-12T05:59:45.892Z,9.30
2018-07-12T06:02:21.908Z,9.80
2018-07-12T06:04:50.252Z,10.80
2018-07-12T06:07:23.640Z,9.97
2018-07-12T06:09:51.708Z,10.50
2018-07-12T06:12:20.204Z,11.80
2018-07-12T06:14:48.214Z,11.37
2018-07-12T06:17:16.344Z,11.60
2018-07-12T06:19:44.436Z,13.17
2018-07-12T06:22:12.464Z,12.20
2018-07-12T06:24:40.627Z,14.10
2018-07-12T06:27:08.614Z,13.70
2018-07-12T06:29:36.733Z,14.40
2018-07-12T06:32:04.849Z,15.20
2018-07-12T06:34:32.968Z,16.90
2018-07-12T06:37:01.134Z,17.43
2018-07-12T06:39:29.022Z,17.90
2018-07-12T06:41:57.098Z,16.87
2018-07-12T06:44:25.115Z,16.33
2018-07-12T06:46:53.124Z,17.83
2018-07-12T06:49:21.200Z,16.20
2018-07-12T06:51:49.340Z,15.43
2018-07-12T06:54:17.644Z,16.20
2018-07-12T06:56:45.629Z,14.80
2018-07-12T06:59:13.662Z,16.50
2018-07-12T07:01:41.756Z,18.20
2018-07-12T07:04:09.831Z,17.50
2018-07-12T07:06:37.842Z,17.20
2018-07-12T07:09:07.715Z,15.17
2018-07-12T07:11:35.856Z,14.10
2018-07-12T07:14:03.925Z,12.90
2018-07-12T07:16:32.053Z,12.87
2018-07-12T07:19:00.218Z,12.17
2018-07-12T07:21:28.425Z,11.20
2018-07-12T07:23:56.590Z,10.87
2018-07-12T07:26:24.771Z,10.30
2018-07-12T07:28:52.685Z,12.53
2018-07-12T07:31:20.756Z,12.30
2018-07-12T07:33:48.806Z,12.73
2018-07-12T07:36:16.970Z,11.50
2018-07-12T07:38:45.061Z,12.00
2018-07-12T07:41:13.157Z,10.40
2018-07-12T07:43:41.173Z,10.17
2018-07-12T07:46:09.393Z,10.97
2018-07-12T07:48:37.412Z,11.30
2018-07-12T07:51:05.437Z,11.37
2018-07-12T07:53:33.648Z,9.90
2018-07-12T07:56:01.808Z,9.13
2018-07-12T07:58:29.781Z,9.53
2018-07-12T08:00:57.784Z,9.00
2018-07-12T08:03:25.821Z,9.03
2018-07-12T08:05:53.900Z,8.93
2018-07-12T08:08:21.985Z,9.47
2018-07-12T08:10:50.122Z,10.40
2018-07-12T08:13:18.128Z,10.20
2018-07-12T08:15:46.121Z,8.53
2018-07-12T08:18:14.200Z,9.20
2018-07-12T08:20:42.378Z,9.63
2018-07-12T08:23:10.353Z,9.10
2018-07-12T08:25:38.337Z,9.37
2018-07-12T08:28:18.100Z,9.10
2018-07-12T08:30:46.088Z,10.13
2018-07-12T08:33:14.137Z,11.20
2018-07-12T08:35:42.167Z,10.37
2018-07-12T08:38:10.233Z,10.17
2018-07-12T08:40:38.238Z,9.13
2018-07-12T08:43:06.776Z,8.87
2018-07-12T08:45:35.258Z,9.70
2018-07-12T08:48:03.337Z,9.00
2018-07-12T08:50:33.169Z,8.70
2018-07-12T08:53:03.949Z,10.00
2018-07-12T08:55:32.403Z,7.20
2018-07-12T08:58:00.868Z,8.77
2018-07-12T09:00:32.033Z,7.90
2018-07-12T09:03:04.327Z,8.80
2018-07-12T09:05:33.186Z,9.03
2018-07-12T09:08:05.625Z,8.60
2018-07-12T09:10:33.606Z,8.23
2018-07-12T09:13:03.137Z,7.13
2018-07-12T09:15:32.136Z,7.47
2018-07-12T09:18:00.175Z,8.20
2018-07-12T09:20:28.662Z,8.53
2018-07-12T09:22:56.628Z,6.80
2018-07-12T09:25:24.650Z,6.07
2018-07-12T09:27:52.629Z,6.57
2018-07-12T09:30:20.613Z,6.70
2018-07-12T09:32:48.720Z,6.60
2018-07-12T09:35:16.953Z,7.03
2018-07-12T09:37:44.935Z,6.87
2018-07-12T09:40:13.053Z,5.80
2018-07-12T09:42:41.045Z,6.27
2018-07-12T09:45:09.025Z,4.97
2018-07-12T09:47:37.037Z,5.47
2018-07-12T09:50:05.014Z,5.40
2018-07-12T09:52:33.809Z,5.33
2018-07-12T09:55:02.296Z,5.00
2018-07-12T09:58:44.668Z,5.47
2018-07-12T10:01:18.105Z,5.10
2018-07-12T10:03:48.548Z,5.83
2018-07-12T10:06:22.061Z,6.23
2018-07-12T10:08:56.788Z,5.10
2018-07-12T10:11:30.311Z,5.30
2018-07-12T10:14:02.682Z,6.13
2018-07-12T10:16:43.532Z,4.30
2018-07-12T10:19:11.695Z,4.33
2018-07-12T10:21:40.833Z,4.50
2018-07-12T10:24:08.868Z,4.70
2018-07-12T10:26:36.860Z,4.10
2018-07-12T10:29:04.853Z,4.67
2018-07-12T10:31:32.848Z,3.77
2018-07-12T10:34:00.891Z,3.90
2018-07-12T10:36:28.890Z,3.10
2018-07-12T10:38:56.876Z,4.10
2018-07-12T10:41:24.868Z,3.30
2018-07-12T10:43:52.905Z,3.47
2018-07-12T10:46:20.901Z,2.63
2018-07-12T10:48:48.896Z,3.20
2018-07-12T10:51:16.894Z,3.93
2018-07-12T10:53:44.884Z,3.43
2018-07-12T10:56:12.872Z,3.23
2018-07-12T10:58:40.871Z,3.50
2018-07-12T11:01:08.841Z,2.97
2018-07-12T11:03:36.817Z,2.70
2018-07-12T11:06:04.922Z,2.30
2018-07-12T11:08:32.897Z,3.33
2018-07-12T11:11:00.885Z,3.27
2018-07-12T11:13:40.340Z,3.37
2018-07-12T11:16:08.329Z,3.07
2018-07-12T11:18:36.300Z,3.37
2018-07-12T11:21:04.332Z,3.47
2018-07-12T11:23:32.244Z,2.60
2018-07-12T11:26:00.242Z,3.20
2018-07-12T11:28:28.209Z,2.57
2018-07-12T11:30:56.221Z,2.70
2018-07-12T11:33:41.272Z,2.70
2018-07-12T11:36:09.557Z,2.77
2018-07-12T11:38:38.653Z,2.80
2018-07-12T11:41:07.232Z,2.70
2018-07-12T11:43:35.213Z,2.60
2018-07-12T11:46:04.497Z,2.60
2018-07-12T11:48:33.517Z,2.10
2018-07-12T11:51:01.490Z,2.33
2018-07-12T11:53:29.475Z,2.77
2018-07-12T11:55:57.608Z,2.57
2018-07-12T11:58:25.996Z,2.87
2018-07-12T12:00:55.295Z,2.87
2018-07-12T12:03:23.288Z,2.53
2018-07-12T12:05:51.289Z,2.50
2018-07-12T12:08:19.285Z,1.87
2018-07-12T12:10:47.269Z,2.07
2018-07-12T12:13:15.753Z,2.17
2018-07-12T12:15:43.768Z,2.50
2018-07-12T12:18:11.765Z,2.43
2018-07-12T12:20:40.425Z,2.40
2018-07-12T12:23:09.063Z,2.27
2018-07-12T12:25:37.695Z,2.07
2018-07-12T12:28:05.716Z,2.70
2018-07-12T12:30:33.767Z,2.57
2018-07-12T12:33:01.737Z,2.33
2018-07-12T12:35:29.726Z,2.40
2018-07-12T12:37:57.747Z,2.50
2018-07-12T12:40:25.733Z,2.47
2018-07-12T12:42:53.721Z,2.47
2018-07-12T12:48:01.299Z,2.33
2018-07-12T12:50:29.273Z,2.30
2018-07-12T12:52:57.273Z,2.20
2018-07-12T12:55:25.259Z,2.83
2018-07-12T12:57:53.307Z,2.30
2018-07-12T13:00:21.320Z,1.90
2018-07-12T13:02:49.321Z,2.87
2018-07-12T13:05:17.342Z,2.27
2018-07-12T13:07:45.330Z,2.57
2018-07-12T13:10:13.541Z,2.57
2018-07-12T13:12:41.574Z,2.33
2018-07-12T13:15:10.197Z,2.10
2018-07-12T13:17:38.468Z,3.03
2018-07-12T13:20:06.529Z,1.80
2018-07-12T13:22:34.501Z,2.57
2018-07-12T13:25:02.492Z,2.70
2018-07-12T13:27:30.535Z,2.50
2018-07-12T13:29:58.530Z,2.63
2018-07-12T13:32:26.562Z,2.60
2018-07-12T13:34:54.555Z,2.43
2018-07-12T13:37:22.602Z,2.67
2018-07-12T13:39:50.760Z,2.57
2018-07-12T13:42:18.765Z,2.00
2018-07-12T13:44:46.760Z,2.90
2018-07-12T13:47:14.768Z,2.80
2018-07-12T13:49:42.867Z,2.30
2018-07-12T13:52:10.924Z,2.73
2018-07-12T13:54:38.885Z,2.60
2018-07-12T13:57:07.169Z,2.70
2018-07-12T13:59:35.195Z,2.67
2018-07-12T14:02:03.489Z,2.10
2018-07-12T14:04:31.500Z,2.33
2018-07-12T14:06:59.645Z,2.40
2018-07-12T14:09:27.644Z,2.23
2018-07-12T14:11:55.620Z,2.53
2018-07-12T14:14:23.624Z,2.73
2018-07-12T14:16:51.658Z,2.37
2018-07-12T14:19:19.782Z,3.23
2018-07-12T14:21:47.814Z,3.20
2018-07-12T14:24:15.880Z,2.50
2018-07-12T14:26:43.869Z,3.17
2018-07-12T14:29:11.880Z,3.20
2018-07-12T14:31:39.913Z,2.83
2018-07-12T14:34:07.912Z,2.93
2018-07-12T14:36:35.905Z,2.77
2018-07-12T14:39:05.625Z,3.17
2018-07-12T14:41:33.636Z,3.70
2018-07-12T14:44:01.656Z,3.40
2018-07-12T14:46:29.665Z,4.77
2018-07-12T14:48:57.664Z,4.00
2018-07-12T14:51:25.660Z,3.50
2018-07-12T14:53:53.673Z,3.87
2018-07-12T14:56:21.693Z,3.40
2018-07-12T14:58:49.859Z,3.70
2018-07-12T15:01:17.828Z,4.87
2018-07-12T15:03:45.835Z,3.10
2018-07-12T15:06:13.893Z,3.27
2018-07-12T15:08:41.963Z,3.50
2018-07-12T15:11:09.921Z,3.50
2018-07-12T15:13:37.905Z,3.03
2018-07-12T15:16:05.916Z,3.00
2018-07-12T15:18:33.901Z,2.83
2018-07-12T15:21:01.907Z,3.63
2018-07-12T15:23:29.904Z,3.40
2018-07-12T15:25:58.079Z,2.80
2018-07-12T15:28:26.063Z,3.63
2018-07-12T15:30:54.073Z,3.20
2018-07-12T15:33:22.097Z,3.47
2018-07-12T15:35:50.298Z,4.00
2018-07-12T15:38:18.272Z,3.50
2018-07-12T15:40:46.253Z,3.30
2018-07-12T15:43:14.229Z,3.73
2018-07-12T15:45:42.225Z,3.47
2018-07-12T15:48:10.244Z,4.03
2018-07-12T15:50:38.236Z,4.00
2018-07-12T15:53:06.212Z,4.50
2018-07-12T15:55:34.198Z,4.30
2018-07-12T15:58:02.229Z,3.73
2018-07-12T16:00:30.213Z,3.73
2018-07-12T16:02:58.252Z,4.03
2018-07-12T16:05:26.245Z,3.87
2018-07-12T16:07:54.225Z,4.27
2018-07-12T16:10:22.264Z,3.97
2018-07-12T16:12:50.250Z,4.13
2018-07-12T16:15:18.228Z,4.67
2018-07-12T16:17:46.209Z,4.10
2018-07-12T16:20:14.193Z,3.93
2018-07-12T16:22:42.183Z,4.10
2018-07-12T16:25:10.168Z,3.90
2018-07-12T16:27:38.170Z,3.50
2018-07-12T16:30:06.517Z,3.97
2018-07-12T16:32:34.500Z,4.27
2018-07-12T16:35:02.498Z,3.90
2018-07-12T16:37:30.493Z,3.53
2018-07-12T16:39:58.464Z,3.80
2018-07-12T16:42:26.538Z,4.40
2018-07-12T16:44:54.520Z,3.50
2018-07-12T16:47:22.531Z,3.47
2018-07-12T16:49:50.529Z,3.83
2018-07-12T16:52:18.542Z,3.90
2018-07-12T16:54:46.536Z,3.70
2018-07-12T16:57:14.557Z,3.20
2018-07-12T16:59:42.568Z,3.80
2018-07-12T17:02:10.601Z,3.70
2018-07-12T17:04:38.581Z,3.30
2018-07-12T17:07:06.602Z,3.07
2018-07-12T17:09:34.556Z,3.60
2018-07-12T17:12:02.570Z,3.33
2018-07-12T17:14:30.734Z,3.00
2018-07-12T17:16:58.747Z,3.37
2018-07-12T17:19:26.746Z,3.73
2018-07-12T17:21:54.736Z,3.30
2018-07-12T17:24:22.813Z,3.70
2018-07-12T17:26:51.403Z,3.57
2018-07-12T17:29:19.396Z,3.77
2018-07-12T17:31:47.396Z,4.13
2018-07-12T17:34:15.549Z,3.50
2018-07-12T17:36:43.531Z,3.40
2018-07-12T17:39:11.566Z,4.03
2018-07-12T17:41:39.578Z,4.50
2018-07-12T17:44:07.597Z,3.90
2018-07-12T17:46:35.605Z,3.70
2018-07-12T17:49:03.605Z,4.70
2018-07-12T17:51:31.612Z,3.60
2018-07-12T17:53:59.617Z,3.87
2018-07-12T17:56:27.665Z,3.90
2018-07-12T17:58:55.717Z,3.80
2018-07-12T18:01:23.749Z,3.87
2018-07-12T18:03:51.759Z,4.60
2018-07-12T18:06:19.764Z,5.03
2018-07-12T18:08:47.779Z,3.70
2018-07-12T18:11:15.787Z,3.50
2018-07-12T18:13:43.790Z,3.93
2018-07-12T18:16:11.825Z,3.50
2018-07-12T18:18:39.904Z,3.50
2018-07-12T18:21:08.135Z,3.27
2018-07-12T18:23:36.163Z,3.50
2018-07-12T18:26:04.150Z,3.57
2018-07-12T18:28:32.169Z,3.40
2018-07-12T18:31:00.172Z,4.60
2018-07-12T18:33:28.181Z,3.73
2018-07-12T18:35:56.233Z,3.13
2018-07-12T18:38:24.265Z,3.70
2018-07-12T18:40:52.310Z,4.20
2018-07-12T18:43:20.341Z,4.10
2018-07-12T18:45:48.393Z,3.30
2018-07-12T18:48:16.394Z,4.07
2018-07-12T18:50:44.392Z,4.73
2018-07-12T18:53:12.444Z,5.70
2018-07-12T18:55:40.488Z,4.33
2018-07-12T18:58:08.516Z,4.20
2018-07-12T19:00:36.505Z,4.20
2018-07-12T19:03:04.528Z,4.70
2018-07-12T19:05:32.597Z,4.30
2018-07-12T19:08:00.685Z,4.50
2018-07-12T19:10:28.672Z,4.23
2018-07-12T19:12:56.660Z,3.50
2018-07-12T19:15:24.801Z,4.00
2018-07-12T19:17:52.785Z,3.63
2018-07-12T19:20:21.004Z,3.70
2018-07-12T19:22:49.127Z,3.20
2018-07-12T19:25:17.113Z,3.53
2018-07-12T19:27:45.113Z,3.97
2018-07-12T19:30:13.237Z,3.43
2018-07-12T19:32:41.294Z,3.80
2018-07-12T19:35:09.948Z,3.93
2018-07-12T19:37:38.256Z,2.97
2018-07-12T19:40:06.484Z,3.50
2018-07-12T19:42:34.635Z,3.80
2018-07-12T19:45:02.855Z,3.63
2018-07-12T19:47:31.061Z,3.50
2018-07-12T19:49:59.138Z,3.93
2018-07-12T19:52:27.246Z,3.53
2018-07-12T19:54:55.623Z,3.17
2018-07-12T19:57:24.046Z,3.63
2018-07-12T19:59:52.088Z,4.43
2018-07-12T20:02:20.352Z,4.03
2018-07-12T20:04:48.580Z,4.23
2018-07-12T20:07:16.836Z,4.20
2018-07-12T20:09:45.037Z,4.37
2018-07-12T20:12:13.094Z,4.50
2018-07-12T20:14:41.221Z,4.20
2018-07-12T20:17:09.277Z,4.80
2018-07-12T20:19:37.375Z,5.00
2018-07-12T20:22:05.452Z,5.73
2018-07-12T20:24:33.520Z,5.50
2018-07-12T20:27:01.592Z,5.70
2018-07-12T20:29:29.778Z,5.43
2018-07-12T20:31:57.868Z,6.17
2018-07-12T20:34:26.069Z,6.60
2018-07-12T20:36:54.202Z,6.40
2018-07-12T20:39:22.336Z,6.77
2018-07-12T20:41:50.883Z,6.10
2018-07-12T20:44:19.027Z,7.50
2018-07-12T20:46:47.842Z,7.47
2018-07-12T20:49:16.045Z,8.30
2018-07-12T20:51:44.256Z,8.70
2018-07-12T20:54:12.521Z,9.43
2018-07-12T20:56:40.697Z,9.90
2018-07-12T20:59:08.850Z,10.10
2018-07-12T21:01:36.962Z,9.73
2018-07-12T21:04:05.100Z,10.80
2018-07-12T21:06:33.230Z,10.90
2018-07-12T21:09:01.472Z,10.73
2018-07-12T21:11:29.634Z,12.07
2018-07-12T21:13:57.894Z,11.50
2018-07-12T21:16:26.069Z,11.60
2018-07-12T21:18:54.173Z,13.60
2018-07-12T21:21:22.230Z,13.33
2018-07-12T21:23:50.320Z,13.77
2018-07-12T21:26:18.359Z,13.40
2018-07-12T21:28:46.418Z,12.70
2018-07-12T21:31:14.500Z,13.97
2018-07-12T21:33:42.690Z,15.03
2018-07-12T21:36:10.701Z,15.03
2018-07-12T21:38:38.750Z,15.10
2018-07-12T21:41:07.060Z,14.80
2018-07-12T21:43:35.241Z,15.40
2018-07-12T21:46:03.338Z,14.87
2018-07-12T21:48:31.366Z,15.67
2018-07-12T21:50:59.377Z,15.40
2018-07-12T21:53:27.582Z,15.53
2018-07-12T21:55:55.596Z,16.93
2018-07-12T21:58:23.913Z,15.97
2018-07-12T22:00:52.022Z,16.70
2018-07-12T22:03:20.252Z,17.17
2018-07-12T22:05:48.761Z,17.73
2018-07-12T22:08:24.789Z,18.40
2018-07-12T22:10:54.974Z,18.77
2018-07-12T22:13:23.477Z,20.37
2018-07-12T22:15:51.569Z,19.70
2018-07-12T22:18:19.681Z,20.63
2018-07-12T22:20:47.693Z,20.70
2018-07-12T22:23:15.684Z,21.57
2018-07-12T22:25:43.692Z,21.17
2018-07-12T22:28:11.698Z,21.00
2018-07-12T22:30:39.844Z,21.30
2018-07-12T22:33:07.700Z,21.60
2018-07-12T22:35:35.703Z,21.73
2018-07-12T22:38:04.117Z,22.83
2018-07-12T22:40:32.440Z,21.77
2018-07-12T22:43:00.448Z,22.57
2018-07-12T22:45:28.476Z,22.40
2018-07-12T22:47:56.823Z,21.20
2018-07-12T22:50:24.781Z,23.00
2018-07-12T22:52:52.820Z,20.50
2018-07-12T22:55:21.093Z,20.97
2018-07-12T22:57:49.109Z,21.87
2018-07-12T23:00:17.232Z,22.50
2018-07-12T23:02:45.264Z,21.10
2018-07-12T23:05:13.284Z,21.07
2018-07-12T23:07:41.413Z,20.13
2018-07-12T23:10:10.412Z,21.97
2018-07-12T23:12:38.402Z,22.90
2018-07-12T23:15:06.417Z,21.70
2018-07-12T23:17:34.553Z,22.17
2018-07-12T23:20:02.628Z,23.60
2018-07-12T23:22:30.640Z,22.33
2018-07-12T23:24:58.669Z,22.30
2018-07-12T23:27:26.710Z,23.07
2018-07-12T23:29:54.730Z,23.47
2018-07-12T23:32:22.732Z,21.60
2018-07-12T23:34:50.759Z,21.40
2018-07-12T23:37:18.753Z,22.23
2018-07-12T23:39:46.761Z,22.67
2018-07-12T23:42:14.758Z,21.13
2018-07-12T23:44:42.752Z,21.17
2018-07-12T23:47:11.269Z,22.23
2018-07-12T23:49:39.331Z,22.07
2018-07-12T23:52:07.333Z,20.37
2018-07-12T23:54:35.373Z,20.90
2018-07-12T23:57:03.348Z,22.30
2018-07-12T23:59:31.409Z,20.43
